sensor_id;sensor_type;location;lat;lon;timestamp;temperature;humidity
38237;DHT22;50101;49.438;11.098;2024-01-30T00:06:06;20.40;48.60
38237;DHT22;50101;49.438;11.098;2024-01-30T00:08:33;19.40;47.50
38237;DHT22;50101;49.438;11.098;2024-01-30T00:10:59;18.90;46.90
38237;DHT22;50101;49.438;11.098;2024-01-30T00:13:27;19.60;47.60
38237;DHT22;50101;49.438;11.098;2024-01-30T00:18:21;19.50;48.70
38237;DHT22;50101;49.438;11.098;2024-01-30T00:20:48;19.70;48.20
38237;DHT22;50101;49.438;11.098;2024-01-30T00:25:41;19.60;47.70
38237;DHT22;50101;49.438;11.098;2024-01-30T00:28:08;19.50;47.50
38237;DHT22;50101;49.438;11.098;2024-01-30T00:30:35;19.50;47.50
38237;DHT22;50101;49.438;11.098;2024-01-30T00:33:01;19.60;49.90
38237;DHT22;50101;49.438;11.098;2024-01-30T00:35:28;19.70;49.90
38237;DHT22;50101;49.438;11.098;2024-01-30T00:45:18;19.60;50.30
38237;DHT22;50101;49.438;11.098;2024-01-30T00:47:45;19.50;48.50
38237;DHT22;50101;49.438;11.098;2024-01-30T00:55:07;19.40;50.30
38237;DHT22;50101;49.438;11.098;2024-01-30T00:57:34;19.30;49.90
38237;DHT22;50101;49.438;11.098;2024-01-30T01:00:01;19.70;50.30
38237;DHT22;50101;49.438;11.098;2024-01-30T01:02:28;19.30;50.90
38237;DHT22;50101;49.438;11.098;2024-01-30T01:04:54;19.50;49.60
38237;DHT22;50101;49.438;11.098;2024-01-30T01:09:48;19.20;51.50
38237;DHT22;50101;49.438;11.098;2024-01-30T01:12:15;19.50;51.10
38237;DHT22;50101;49.438;11.098;2024-01-30T01:14:42;19.40;48.00
38237;DHT22;50101;49.438;11.098;2024-01-30T01:17:08;19.60;51.10
38237;DHT22;50101;49.438;11.098;2024-01-30T01:19:35;19.20;51.50
38237;DHT22;50101;49.438;11.098;2024-01-30T01:22:02;19.50;51.20
38237;DHT22;50101;49.438;11.098;2024-01-30T01:24:33;19.70;51.80
38237;DHT22;50101;49.438;11.098;2024-01-30T01:26:59;19.40;51.50
38237;DHT22;50101;49.438;11.098;2024-01-30T01:29:26;19.10;51.30
38237;DHT22;50101;49.438;11.098;2024-01-30T01:31:55;19.50;52.00
38237;DHT22;50101;49.438;11.098;2024-01-30T01:34:23;19.30;51.90
38237;DHT22;50101;49.438;11.098;2024-01-30T01:36:53;19.30;51.50
38237;DHT22;50101;49.438;11.098;2024-01-30T01:39:22;19.50;52.10
38237;DHT22;50101;49.438;11.098;2024-01-30T01:41:50;19.50;51.90
38237;DHT22;50101;49.438;11.098;2024-01-30T01:44:18;19.40;52.30
38237;DHT22;50101;49.438;11.098;2024-01-30T01:46:45;19.40;48.40
38237;DHT22;50101;49.438;11.098;2024-01-30T01:49:12;19.60;47.80
38237;DHT22;50101;49.438;11.098;2024-01-30T01:51:41;19.40;51.70
38237;DHT22;50101;49.438;11.098;2024-01-30T01:54:09;19.80;52.30
38237;DHT22;50101;49.438;11.098;2024-01-30T01:56:35;19.70;52.00
38237;DHT22;50101;49.438;11.098;2024-01-30T01:59:05;19.10;51.50
38237;DHT22;50101;49.438;11.098;2024-01-30T02:01:38;19.50;47.10
38237;DHT22;50101;49.438;11.098;2024-01-30T02:04:07;19.50;52.30
38237;DHT22;50101;49.438;11.098;2024-01-30T02:06:34;19.10;51.70
38237;DHT22;50101;49.438;11.098;2024-01-30T02:09:01;19.20;48.60
38237;DHT22;50101;49.438;11.098;2024-01-30T02:11:28;19.50;52.10
38237;DHT22;50101;49.438;11.098;2024-01-30T02:16:22;19.40;52.10
38237;DHT22;50101;49.438;11.098;2024-01-30T02:18:49;19.50;50.80
38237;DHT22;50101;49.438;11.098;2024-01-30T02:21:16;19.20;51.50
38237;DHT22;50101;49.438;11.098;2024-01-30T02:23:44;19.50;50.80
38237;DHT22;50101;49.438;11.098;2024-01-30T02:26:13;19.20;51.10
38237;DHT22;50101;49.438;11.098;2024-01-30T02:28:39;19.50;51.70
38237;DHT22;50101;49.438;11.098;2024-01-30T02:31:06;19.40;51.70
38237;DHT22;50101;49.438;11.098;2024-01-30T02:33:33;19.30;51.40
38237;DHT22;50101;49.438;11.098;2024-01-30T02:36:00;19.30;52.00
38237;DHT22;50101;49.438;11.098;2024-01-30T02:38:26;19.70;52.00
38237;DHT22;50101;49.438;11.098;2024-01-30T02:40:53;19.70;52.60
38237;DHT22;50101;49.438;11.098;2024-01-30T02:43:20;19.50;52.70
38237;DHT22;50101;49.438;11.098;2024-01-30T02:45:47;19.10;51.60
38237;DHT22;50101;49.438;11.098;2024-01-30T02:48:13;19.60;51.90
38237;DHT22;50101;49.438;11.098;2024-01-30T02:50:40;19.60;52.40
38237;DHT22;50101;49.438;11.098;2024-01-30T02:53:07;19.60;52.60
38237;DHT22;50101;49.438;11.098;2024-01-30T02:55:34;19.10;51.70
38237;DHT22;50101;49.438;11.098;2024-01-30T02:58:00;19.40;51.80
38237;DHT22;50101;49.438;11.098;2024-01-30T03:00:27;19.60;52.70
38237;DHT22;50101;49.438;11.098;2024-01-30T03:05:21;19.30;52.20
38237;DHT22;50101;49.438;11.098;2024-01-30T03:07:48;19.60;52.30
38237;DHT22;50101;49.438;11.098;2024-01-30T03:10:15;19.30;52.50
38237;DHT22;50101;49.438;11.098;2024-01-30T03:12:41;19.40;53.00
38237;DHT22;50101;49.438;11.098;2024-01-30T03:15:08;19.20;50.40
38237;DHT22;50101;49.438;11.098;2024-01-30T03:17:36;19.30;52.40
38237;DHT22;50101;49.438;11.098;2024-01-30T03:20:04;19.50;52.90
38237;DHT22;50101;49.438;11.098;2024-01-30T03:22:32;19.50;53.40
38237;DHT22;50101;49.438;11.098;2024-01-30T03:24:59;19.20;52.50
38237;DHT22;50101;49.438;11.098;2024-01-30T03:27:26;19.20;53.00
38237;DHT22;50101;49.438;11.098;2024-01-30T03:29:52;19.20;53.00
38237;DHT22;50101;49.438;11.098;2024-01-30T03:32:19;19.20;53.00
38237;DHT22;50101;49.438;11.098;2024-01-30T03:34:45;19.60;53.10
38237;DHT22;50101;49.438;11.098;2024-01-30T03:37:12;19.50;52.50
38237;DHT22;50101;49.438;11.098;2024-01-30T03:39:39;19.10;50.30
38237;DHT22;50101;49.438;11.098;2024-01-30T03:44:33;19.20;52.60
38237;DHT22;50101;49.438;11.098;2024-01-30T03:56:48;19.10;52.90
38237;DHT22;50101;49.438;11.098;2024-01-30T04:01:46;19.30;53.50
38237;DHT22;50101;49.438;11.098;2024-01-30T04:04:13;19.20;53.50
38237;DHT22;50101;49.438;11.098;2024-01-30T04:06:40;19.20;52.90
38237;DHT22;50101;49.438;11.098;2024-01-30T04:09:06;19.30;52.40
38237;DHT22;50101;49.438;11.098;2024-01-30T04:11:33;19.10;51.70
38237;DHT22;50101;49.438;11.098;2024-01-30T04:14:00;19.10;53.10
38237;DHT22;50101;49.438;11.098;2024-01-30T04:16:27;19.10;52.90
38237;DHT22;50101;49.438;11.098;2024-01-30T04:18:54;18.80;53.10
38237;DHT22;50101;49.438;11.098;2024-01-30T04:21:21;19.30;53.80
38237;DHT22;50101;49.438;11.098;2024-01-30T04:23:48;19.00;53.60
38237;DHT22;50101;49.438;11.098;2024-01-30T04:26:15;19.30;53.60
38237;DHT22;50101;49.438;11.098;2024-01-30T04:28:43;18.90;53.30
38237;DHT22;50101;49.438;11.098;2024-01-30T04:31:10;19.30;54.20
38237;DHT22;50101;49.438;11.098;2024-01-30T04:33:37;19.20;53.60
38237;DHT22;50101;49.438;11.098;2024-01-30T04:36:07;19.50;53.70
38237;DHT22;50101;49.438;11.098;2024-01-30T04:38:35;19.40;52.80
38237;DHT22;50101;49.438;11.098;2024-01-30T04:41:02;18.80;52.00
38237;DHT22;50101;49.438;11.098;2024-01-30T04:43:29;19.30;52.50
38237;DHT22;50101;49.438;11.098;2024-01-30T04:45:56;19.20;51.50
38237;DHT22;50101;49.438;11.098;2024-01-30T04:48:23;19.40;52.70
38237;DHT22;50101;49.438;11.098;2024-01-30T04:50:50;19.10;53.40
38237;DHT22;50101;49.438;11.098;2024-01-30T04:53:16;19.40;53.80
38237;DHT22;50101;49.438;11.098;2024-01-30T04:55:43;19.00;53.00
38237;DHT22;50101;49.438;11.098;2024-01-30T04:58:10;19.20;53.00
38237;DHT22;50101;49.438;11.098;2024-01-30T05:00:37;19.10;53.80
38237;DHT22;50101;49.438;11.098;2024-01-30T05:03:03;19.30;53.60
38237;DHT22;50101;49.438;11.098;2024-01-30T05:05:30;19.40;53.50
38237;DHT22;50101;49.438;11.098;2024-01-30T05:07:57;19.20;53.80
38237;DHT22;50101;49.438;11.098;2024-01-30T05:10:24;19.00;53.70
38237;DHT22;50101;49.438;11.098;2024-01-30T05:12:50;19.10;53.10
38237;DHT22;50101;49.438;11.098;2024-01-30T05:15:17;19.10;53.10
38237;DHT22;50101;49.438;11.098;2024-01-30T05:17:44;19.10;51.10
38237;DHT22;50101;49.438;11.098;2024-01-30T05:20:11;19.20;48.30
38237;DHT22;50101;49.438;11.098;2024-01-30T05:22:38;19.10;50.70
38237;DHT22;50101;49.438;11.098;2024-01-30T05:25:12;18.90;51.40
38237;DHT22;50101;49.438;11.098;2024-01-30T05:27:39;19.70;50.60
38237;DHT22;50101;49.438;11.098;2024-01-30T05:30:06;19.00;52.50
38237;DHT22;50101;49.438;11.098;2024-01-30T05:32:33;19.20;53.90
38237;DHT22;50101;49.438;11.098;2024-01-30T05:35:00;19.00;53.30
38237;DHT22;50101;49.438;11.098;2024-01-30T05:37:27;19.10;53.40
38237;DHT22;50101;49.438;11.098;2024-01-30T05:39:54;19.30;54.00
38237;DHT22;50101;49.438;11.098;2024-01-30T05:42:20;19.30;54.20
38237;DHT22;50101;49.438;11.098;2024-01-30T05:44:47;19.10;54.10
38237;DHT22;50101;49.438;11.098;2024-01-30T05:47:14;19.20;53.40
38237;DHT22;50101;49.438;11.098;2024-01-30T05:49:40;19.10;53.80
38237;DHT22;50101;49.438;11.098;2024-01-30T05:52:07;19.10;54.10
38237;DHT22;50101;49.438;11.098;2024-01-30T05:54:34;18.90;54.70
38237;DHT22;50101;49.438;11.098;2024-01-30T05:57:01;18.90;54.10
38237;DHT22;50101;49.438;11.098;2024-01-30T05:59:27;19.50;55.10
38237;DHT22;50101;49.438;11.098;2024-01-30T06:04:22;18.80;53.50
38237;DHT22;50101;49.438;11.098;2024-01-30T06:06:49;19.00;54.00
38237;DHT22;50101;49.438;11.098;2024-01-30T06:09:17;19.00;54.50
38237;DHT22;50101;49.438;11.098;2024-01-30T06:11:43;18.90;54.20
38237;DHT22;50101;49.438;11.098;2024-01-30T06:14:10;19.20;55.00
38237;DHT22;50101;49.438;11.098;2024-01-30T06:16:37;19.30;54.70
38237;DHT22;50101;49.438;11.098;2024-01-30T06:19:03;18.80;54.80
38237;DHT22;50101;49.438;11.098;2024-01-30T06:21:30;18.90;54.30
38237;DHT22;50101;49.438;11.098;2024-01-30T06:23:58;19.30;54.30
38237;DHT22;50101;49.438;11.098;2024-01-30T06:26:24;18.90;54.00
38237;DHT22;50101;49.438;11.098;2024-01-30T06:28:51;18.80;54.70
38237;DHT22;50101;49.438;11.098;2024-01-30T06:31:18;18.90;54.90
38237;DHT22;50101;49.438;11.098;2024-01-30T06:33:47;19.20;55.10
38237;DHT22;50101;49.438;11.098;2024-01-30T06:36:14;19.10;55.40
38237;DHT22;50101;49.438;11.098;2024-01-30T06:38:41;18.90;48.50
38237;DHT22;50101;49.438;11.098;2024-01-30T06:41:08;19.30;55.60
38237;DHT22;50101;49.438;11.098;2024-01-30T06:43:35;19.10;54.50
38237;DHT22;50101;49.438;11.098;2024-01-30T06:46:01;19.30;54.50
38237;DHT22;50101;49.438;11.098;2024-01-30T06:48:28;19.30;55.30
38237;DHT22;50101;49.438;11.098;2024-01-30T06:50:55;19.00;53.60
38237;DHT22;50101;49.438;11.098;2024-01-30T06:53:21;18.50;54.40
38237;DHT22;50101;49.438;11.098;2024-01-30T06:55:48;18.80;53.90
38237;DHT22;50101;49.438;11.098;2024-01-30T06:58:15;19.50;55.30
38237;DHT22;50101;49.438;11.098;2024-01-30T07:00:41;18.90;54.50
38237;DHT22;50101;49.438;11.098;2024-01-30T07:03:08;19.40;54.50
38237;DHT22;50101;49.438;11.098;2024-01-30T07:05:35;19.10;54.00
38237;DHT22;50101;49.438;11.098;2024-01-30T07:08:02;19.20;55.00
38237;DHT22;50101;49.438;11.098;2024-01-30T07:10:29;19.00;50.50
38237;DHT22;50101;49.438;11.098;2024-01-30T07:12:55;18.30;53.60
38237;DHT22;50101;49.438;11.098;2024-01-30T07:15:22;19.60;54.90
38237;DHT22;50101;49.438;11.098;2024-01-30T07:17:49;19.40;54.90
38237;DHT22;50101;49.438;11.098;2024-01-30T07:20:16;19.20;54.30
38237;DHT22;50101;49.438;11.098;2024-01-30T07:22:44;19.60;54.40
38237;DHT22;50101;49.438;11.098;2024-01-30T07:25:11;19.60;54.90
38237;DHT22;50101;49.438;11.098;2024-01-30T07:27:38;19.30;55.00
38237;DHT22;50101;49.438;11.098;2024-01-30T07:30:05;19.50;54.60
38237;DHT22;50101;49.438;11.098;2024-01-30T07:32:32;19.40;54.70
38237;DHT22;50101;49.438;11.098;2024-01-30T07:34:59;19.60;53.00
38237;DHT22;50101;49.438;11.098;2024-01-30T07:37:34;19.60;54.20
38237;DHT22;50101;49.438;11.098;2024-01-30T07:40:02;19.60;54.20
38237;DHT22;50101;49.438;11.098;2024-01-30T07:42:30;19.20;53.70
38237;DHT22;50101;49.438;11.098;2024-01-30T07:44:57;19.70;54.50
38237;DHT22;50101;49.438;11.098;2024-01-30T07:47:24;19.70;54.70
38237;DHT22;50101;49.438;11.098;2024-01-30T07:49:50;19.80;54.90
38237;DHT22;50101;49.438;11.098;2024-01-30T07:52:18;19.20;53.60
38237;DHT22;50101;49.438;11.098;2024-01-30T07:54:45;20.30;55.00
38237;DHT22;50101;49.438;11.098;2024-01-30T07:57:11;19.50;54.60
38237;DHT22;50101;49.438;11.098;2024-01-30T07:59:38;19.90;54.60
38237;DHT22;50101;49.438;11.098;2024-01-30T08:02:05;19.50;53.90
38237;DHT22;50101;49.438;11.098;2024-01-30T08:04:32;19.70;54.30
38237;DHT22;50101;49.438;11.098;2024-01-30T08:06:59;19.70;54.50
38237;DHT22;50101;49.438;11.098;2024-01-30T08:09:26;19.40;54.20
38237;DHT22;50101;49.438;11.098;2024-01-30T08:11:52;19.80;53.90
38237;DHT22;50101;49.438;11.098;2024-01-30T08:14:19;19.50;54.00
38237;DHT22;50101;49.438;11.098;2024-01-30T08:16:46;19.80;54.60
38237;DHT22;50101;49.438;11.098;2024-01-30T08:19:14;19.90;55.10
38237;DHT22;50101;49.438;11.098;2024-01-30T08:21:40;19.60;54.70
38237;DHT22;50101;49.438;11.098;2024-01-30T08:24:07;19.80;53.30
38237;DHT22;50101;49.438;11.098;2024-01-30T08:29:02;19.80;52.60
38237;DHT22;50101;49.438;11.098;2024-01-30T08:33:56;19.70;53.80
38237;DHT22;50101;49.438;11.098;2024-01-30T08:36:23;19.80;53.80
38237;DHT22;50101;49.438;11.098;2024-01-30T08:38:49;19.20;52.90
38237;DHT22;50101;49.438;11.098;2024-01-30T08:41:16;19.90;53.60
38237;DHT22;50101;49.438;11.098;2024-01-30T08:43:43;19.80;55.10
38237;DHT22;50101;49.438;11.098;2024-01-30T08:46:11;19.60;54.10
38237;DHT22;50101;49.438;11.098;2024-01-30T08:48:38;19.80;54.40
38237;DHT22;50101;49.438;11.098;2024-01-30T08:51:05;19.70;53.70
38237;DHT22;50101;49.438;11.098;2024-01-30T08:53:36;19.90;54.00
38237;DHT22;50101;49.438;11.098;2024-01-30T08:56:03;19.90;54.00
38237;DHT22;50101;49.438;11.098;2024-01-30T08:58:30;19.90;53.60
38237;DHT22;50101;49.438;11.098;2024-01-30T09:00:58;19.80;53.10
38237;DHT22;50101;49.438;11.098;2024-01-30T09:03:25;20.00;53.90
38237;DHT22;50101;49.438;11.098;2024-01-30T09:05:51;20.00;54.30
38237;DHT22;50101;49.438;11.098;2024-01-30T09:08:18;20.00;53.80
38237;DHT22;50101;49.438;11.098;2024-01-30T09:10:45;20.30;54.00
38237;DHT22;50101;49.438;11.098;2024-01-30T09:13:12;19.80;54.00
38237;DHT22;50101;49.438;11.098;2024-01-30T09:15:38;19.80;54.20
38237;DHT22;50101;49.438;11.098;2024-01-30T09:18:05;19.80;53.70
38237;DHT22;50101;49.438;11.098;2024-01-30T09:20:32;19.90;53.40
38237;DHT22;50101;49.438;11.098;2024-01-30T09:23:00;20.10;54.30
38237;DHT22;50101;49.438;11.098;2024-01-30T09:25:27;20.10;53.90
38237;DHT22;50101;49.438;11.098;2024-01-30T09:27:54;19.80;53.60
38237;DHT22;50101;49.438;11.098;2024-01-30T09:30:21;20.00;53.50
38237;DHT22;50101;49.438;11.098;2024-01-30T09:32:47;20.10;54.20
38237;DHT22;50101;49.438;11.098;2024-01-30T09:35:16;20.00;54.20
38237;DHT22;50101;49.438;11.098;2024-01-30T09:37:43;20.30;54.10
38237;DHT22;50101;49.438;11.098;2024-01-30T09:40:10;19.90;53.80
38237;DHT22;50101;49.438;11.098;2024-01-30T09:42:37;19.80;54.10
38237;DHT22;50101;49.438;11.098;2024-01-30T09:45:05;20.30;54.80
38237;DHT22;50101;49.438;11.098;2024-01-30T09:47:41;20.10;54.10
38237;DHT22;50101;49.438;11.098;2024-01-30T09:50:12;20.20;54.10
38237;DHT22;50101;49.438;11.098;2024-01-30T09:52:40;20.20;54.00
38237;DHT22;50101;49.438;11.098;2024-01-30T09:55:07;20.00;54.30
38237;DHT22;50101;49.438;11.098;2024-01-30T09:57:34;20.10;54.70
38237;DHT22;50101;49.438;11.098;2024-01-30T10:00:05;20.00;54.00
38237;DHT22;50101;49.438;11.098;2024-01-30T10:02:35;20.00;53.40
38237;DHT22;50101;49.438;11.098;2024-01-30T10:05:03;20.30;53.60
38237;DHT22;50101;49.438;11.098;2024-01-30T10:07:30;20.20;54.40
38237;DHT22;50101;49.438;11.098;2024-01-30T10:09:57;19.80;53.70
38237;DHT22;50101;49.438;11.098;2024-01-30T10:12:29;20.10;54.60
38237;DHT22;50101;49.438;11.098;2024-01-30T10:14:56;19.90;54.70
38237;DHT22;50101;49.438;11.098;2024-01-30T10:17:25;20.00;54.70
38237;DHT22;50101;49.438;11.098;2024-01-30T10:19:59;20.20;54.50
38237;DHT22;50101;49.438;11.098;2024-01-30T10:22:26;20.00;54.30
38237;DHT22;50101;49.438;11.098;2024-01-30T10:24:53;20.00;54.10
38237;DHT22;50101;49.438;11.098;2024-01-30T10:27:27;20.00;48.40
38237;DHT22;50101;49.438;11.098;2024-01-30T10:32:22;20.10;48.40
38237;DHT22;50101;49.438;11.098;2024-01-30T10:34:48;20.20;48.20
38237;DHT22;50101;49.438;11.098;2024-01-30T10:37:16;20.20;48.20
38237;DHT22;50101;49.438;11.098;2024-01-30T10:39:45;20.20;48.20
38237;DHT22;50101;49.438;11.098;2024-01-30T10:42:17;20.20;48.20
38237;DHT22;50101;49.438;11.098;2024-01-30T10:45:08;20.20;48.20
38237;DHT22;50101;49.438;11.098;2024-01-30T10:47:36;20.10;48.20
38237;DHT22;50101;49.438;11.098;2024-01-30T10:50:05;20.10;48.40
38237;DHT22;50101;49.438;11.098;2024-01-30T10:52:32;20.10;48.40
38237;DHT22;50101;49.438;11.098;2024-01-30T10:54:59;20.10;48.60
38237;DHT22;50101;49.438;11.098;2024-01-30T10:57:27;20.10;48.40
38237;DHT22;50101;49.438;11.098;2024-01-30T10:59:57;20.10;48.30
38237;DHT22;50101;49.438;11.098;2024-01-30T11:02:25;20.10;48.30
38237;DHT22;50101;49.438;11.098;2024-01-30T11:04:57;20.10;48.20
38237;DHT22;50101;49.438;11.098;2024-01-30T11:07:26;20.10;48.30
38237;DHT22;50101;49.438;11.098;2024-01-30T11:10:00;20.10;48.30
38237;DHT22;50101;49.438;11.098;2024-01-30T11:12:31;20.10;48.40
38237;DHT22;50101;49.438;11.098;2024-01-30T11:15:13;20.10;48.20
38237;DHT22;50101;49.438;11.098;2024-01-30T11:20:27;20.10;48.20
38237;DHT22;50101;49.438;11.098;2024-01-30T11:22:58;20.10;48.20
38237;DHT22;50101;49.438;11.098;2024-01-30T11:25:25;20.00;48.10
38237;DHT22;50101;49.438;11.098;2024-01-30T11:27:54;20.10;48.20
38237;DHT22;50101;49.438;11.098;2024-01-30T11:30:31;20.00;48.00
38237;DHT22;50101;49.438;11.098;2024-01-30T11:35:27;20.10;48.20
38237;DHT22;50101;49.438;11.098;2024-01-30T11:37:58;20.20;48.50
38237;DHT22;50101;49.438;11.098;2024-01-30T11:40:27;20.10;48.30
38237;DHT22;50101;49.438;11.098;2024-01-30T11:42:58;20.10;48.40
38237;DHT22;50101;49.438;11.098;2024-01-30T11:45:26;20.20;48.70
38237;DHT22;50101;49.438;11.098;2024-01-30T11:47:54;19.90;48.50
38237;DHT22;50101;49.438;11.098;2024-01-30T11:50:21;20.20;48.70
38237;DHT22;50101;49.438;11.098;2024-01-30T11:52:48;20.10;48.50
38237;DHT22;50101;49.438;11.098;2024-01-30T11:55:15;20.20;48.80
38237;DHT22;50101;49.438;11.098;2024-01-30T11:57:42;20.10;48.50
38237;DHT22;50101;49.438;11.098;2024-01-30T12:00:15;20.00;48.80
38237;DHT22;50101;49.438;11.098;2024-01-30T12:02:44;20.10;48.30
38237;DHT22;50101;49.438;11.098;2024-01-30T12:05:10;20.10;48.40
38237;DHT22;50101;49.438;11.098;2024-01-30T12:07:38;20.10;48.90
38237;DHT22;50101;49.438;11.098;2024-01-30T12:10:05;20.10;48.40
38237;DHT22;50101;49.438;11.098;2024-01-30T12:12:34;19.90;48.50
38237;DHT22;50101;49.438;11.098;2024-01-30T12:15:01;19.80;49.10
38237;DHT22;50101;49.438;11.098;2024-01-30T12:17:29;20.00;48.30
38237;DHT22;50101;49.438;11.098;2024-01-30T12:20:07;19.80;48.80
38237;DHT22;50101;49.438;11.098;2024-01-30T12:22:42;20.20;51.60
38237;DHT22;50101;49.438;11.098;2024-01-30T12:25:14;20.00;51.80
38237;DHT22;50101;49.438;11.098;2024-01-30T12:27:45;20.30;52.50
38237;DHT22;50101;49.438;11.098;2024-01-30T12:30:13;20.20;52.00
38237;DHT22;50101;49.438;11.098;2024-01-30T12:32:42;19.80;51.40
38237;DHT22;50101;49.438;11.098;2024-01-30T12:35:13;20.00;51.90
38237;DHT22;50101;49.438;11.098;2024-01-30T12:37:41;19.90;49.30
38237;DHT22;50101;49.438;11.098;2024-01-30T12:40:13;19.80;52.10
38237;DHT22;50101;49.438;11.098;2024-01-30T12:42:42;20.10;52.40
38237;DHT22;50101;49.438;11.098;2024-01-30T12:45:09;19.80;52.00
38237;DHT22;50101;49.438;11.098;2024-01-30T12:47:36;20.20;52.60
38237;DHT22;50101;49.438;11.098;2024-01-30T12:50:03;19.60;51.90
38237;DHT22;50101;49.438;11.098;2024-01-30T12:52:31;20.10;52.50
38237;DHT22;50101;49.438;11.098;2024-01-30T12:54:58;20.30;53.00
38237;DHT22;50101;49.438;11.098;2024-01-30T12:57:25;20.20;53.10
38237;DHT22;50101;49.438;11.098;2024-01-30T12:59:52;19.90;53.00
38237;DHT22;50101;49.438;11.098;2024-01-30T13:09:43;20.30;49.80
38237;DHT22;50101;49.438;11.098;2024-01-30T13:12:10;20.00;52.20
38237;DHT22;50101;49.438;11.098;2024-01-30T13:26:53;20.20;52.10
38237;DHT22;50101;49.438;11.098;2024-01-30T13:29:20;20.10;49.40
38237;DHT22;50101;49.438;11.098;2024-01-30T13:31:47;20.00;50.50
38237;DHT22;50101;49.438;11.098;2024-01-30T13:34:14;20.00;50.40
38237;DHT22;50101;49.438;11.098;2024-01-30T13:36:41;20.20;52.20
38237;DHT22;50101;49.438;11.098;2024-01-30T13:39:08;20.30;52.60
38237;DHT22;50101;49.438;11.098;2024-01-30T13:41:38;19.90;52.20
38237;DHT22;50101;49.438;11.098;2024-01-30T13:44:05;20.10;53.40
38237;DHT22;50101;49.438;11.098;2024-01-30T13:46:32;20.20;53.10
38237;DHT22;50101;49.438;11.098;2024-01-30T13:48:59;19.90;53.00
38237;DHT22;50101;49.438;11.098;2024-01-30T13:51:27;20.00;52.60
38237;DHT22;50101;49.438;11.098;2024-01-30T13:53:54;20.50;53.10
38237;DHT22;50101;49.438;11.098;2024-01-30T13:56:20;20.30;51.60
38237;DHT22;50101;49.438;11.098;2024-01-30T13:58:50;20.20;52.80
38237;DHT22;50101;49.438;11.098;2024-01-30T14:01:17;19.90;52.30
38237;DHT22;50101;49.438;11.098;2024-01-30T14:03:45;20.10;52.10
38237;DHT22;50101;49.438;11.098;2024-01-30T14:06:12;20.00;53.30
38237;DHT22;50101;49.438;11.098;2024-01-30T14:08:39;20.00;51.50
38237;DHT22;50101;49.438;11.098;2024-01-30T14:11:09;20.00;51.70
38237;DHT22;50101;49.438;11.098;2024-01-30T14:13:36;20.20;51.40
38237;DHT22;50101;49.438;11.098;2024-01-30T14:16:03;20.00;51.30
38237;DHT22;50101;49.438;11.098;2024-01-30T14:18:32;20.50;52.40
38237;DHT22;50101;49.438;11.098;2024-01-30T14:20:58;20.40;51.00
38237;DHT22;50101;49.438;11.098;2024-01-30T14:33:14;20.50;49.80
38237;DHT22;50101;49.438;11.098;2024-01-30T14:35:41;20.60;50.60
38237;DHT22;50101;49.438;11.098;2024-01-30T14:40:36;20.20;53.20
38237;DHT22;50101;49.438;11.098;2024-01-30T14:45:30;20.50;53.20
38237;DHT22;50101;49.438;11.098;2024-01-30T14:47:59;20.40;49.20
38237;DHT22;50101;49.438;11.098;2024-01-30T14:50:26;20.30;52.80
38237;DHT22;50101;49.438;11.098;2024-01-30T14:52:55;20.20;52.60
38237;DHT22;50101;49.438;11.098;2024-01-30T14:55:21;20.20;53.50
38237;DHT22;50101;49.438;11.098;2024-01-30T14:57:48;20.40;53.10
38237;DHT22;50101;49.438;11.098;2024-01-30T15:00:16;20.70;53.70
38237;DHT22;50101;49.438;11.098;2024-01-30T15:02:43;20.50;54.30
38237;DHT22;50101;49.438;11.098;2024-01-30T15:05:11;20.40;54.50
38237;DHT22;50101;49.438;11.098;2024-01-30T15:07:38;20.60;54.60
38237;DHT22;50101;49.438;11.098;2024-01-30T15:10:08;20.50;51.10
38237;DHT22;50101;49.438;11.098;2024-01-30T15:12:36;20.70;53.40
38237;DHT22;50101;49.438;11.098;2024-01-30T15:15:04;20.40;53.70
38237;DHT22;50101;49.438;11.098;2024-01-30T15:22:27;20.60;52.40
38237;DHT22;50101;49.438;11.098;2024-01-30T15:24:53;20.40;51.50
38237;DHT22;50101;49.438;11.098;2024-01-30T15:27:20;20.60;50.70
38237;DHT22;50101;49.438;11.098;2024-01-30T15:29:47;20.70;50.90
38237;DHT22;50101;49.438;11.098;2024-01-30T15:34:41;20.50;50.80
38237;DHT22;50101;49.438;11.098;2024-01-30T15:46:58;20.60;54.30
38237;DHT22;50101;49.438;11.098;2024-01-30T15:49:25;21.00;50.60
38237;DHT22;50101;49.438;11.098;2024-01-30T15:54:19;20.60;50.40
38237;DHT22;50101;49.438;11.098;2024-01-30T15:56:47;20.50;51.10
38237;DHT22;50101;49.438;11.098;2024-01-30T15:59:14;20.80;52.40
38237;DHT22;50101;49.438;11.098;2024-01-30T16:01:41;20.60;52.60
38237;DHT22;50101;49.438;11.098;2024-01-30T16:04:08;20.40;52.90
38237;DHT22;50101;49.438;11.098;2024-01-30T16:06:34;20.30;53.10
38237;DHT22;50101;49.438;11.098;2024-01-30T16:09:01;20.40;53.10
38237;DHT22;50101;49.438;11.098;2024-01-30T16:11:30;20.30;53.60
38237;DHT22;50101;49.438;11.098;2024-01-30T16:13:58;20.80;54.10
38237;DHT22;50101;49.438;11.098;2024-01-30T16:16:25;20.70;54.50
38237;DHT22;50101;49.438;11.098;2024-01-30T16:18:52;20.50;54.10
38237;DHT22;50101;49.438;11.098;2024-01-30T16:21:18;20.50;54.80
38237;DHT22;50101;49.438;11.098;2024-01-30T16:23:45;20.60;54.70
38237;DHT22;50101;49.438;11.098;2024-01-30T16:26:12;21.40;55.20
38237;DHT22;50101;49.438;11.098;2024-01-30T16:33:33;20.50;54.70
38237;DHT22;50101;49.438;11.098;2024-01-30T16:36:00;20.40;54.40
38237;DHT22;50101;49.438;11.098;2024-01-30T16:38:27;20.80;54.80
38237;DHT22;50101;49.438;11.098;2024-01-30T16:40:54;20.80;54.90
38237;DHT22;50101;49.438;11.098;2024-01-30T16:43:20;20.80;55.00
38237;DHT22;50101;49.438;11.098;2024-01-30T16:45:47;20.60;54.10
38237;DHT22;50101;49.438;11.098;2024-01-30T16:48:15;20.60;55.70
38237;DHT22;50101;49.438;11.098;2024-01-30T16:50:45;20.70;55.50
38237;DHT22;50101;49.438;11.098;2024-01-30T16:53:12;20.60;54.40
38237;DHT22;50101;49.438;11.098;2024-01-30T16:55:39;20.40;53.70
38237;DHT22;50101;49.438;11.098;2024-01-30T16:58:05;20.30;54.90
38237;DHT22;50101;49.438;11.098;2024-01-30T17:00:35;20.40;55.20
38237;DHT22;50101;49.438;11.098;2024-01-30T17:03:02;20.40;55.60
38237;DHT22;50101;49.438;11.098;2024-01-30T17:05:31;20.30;54.40
38237;DHT22;50101;49.438;11.098;2024-01-30T17:07:58;20.80;55.10
38237;DHT22;50101;49.438;11.098;2024-01-30T17:10:25;20.40;54.90
38237;DHT22;50101;49.438;11.098;2024-01-30T17:12:53;20.60;55.60
38237;DHT22;50101;49.438;11.098;2024-01-30T17:15:20;20.40;55.40